createdAt,value
2022-10-05T00:00:54.805Z,11.76
2022-10-05T00:03:25.413Z,11.95
2022-10-05T00:05:53.760Z,12.00
2022-10-05T00:08:25.693Z,12.06
2022-10-05T00:10:53.687Z,12.04
2022-10-05T00:13:27.124Z,11.85
2022-10-05T00:16:13.744Z,12.11
2022-10-05T00:18:42.629Z,11.82
2022-10-05T00:21:29.233Z,11.77
2022-10-05T00:23:58.195Z,12.01
2022-10-05T00:26:27.748Z,11.38
2022-10-05T00:28:55.297Z,11.63
2022-10-05T00:31:26.924Z,11.62
2022-10-05T00:33:55.767Z,12.01
2022-10-05T00:36:23.787Z,11.59
2022-10-05T00:38:51.775Z,11.47
2022-10-05T00:41:39.137Z,11.11
2022-10-05T00:44:24.312Z,11.55
2022-10-05T00:47:01.366Z,11.54
2022-10-05T00:49:31.693Z,11.62
2022-10-05T00:52:31.860Z,10.93
2022-10-05T00:55:05.592Z,11.07
2022-10-05T00:57:45.871Z,10.64
2022-10-05T01:00:19.067Z,10.93
2022-10-05T01:03:02.329Z,10.97
2022-10-05T01:05:49.820Z,11.17
2022-10-05T01:08:23.558Z,10.16
2022-10-05T01:11:06.125Z,10.82
2022-10-05T01:14:07.703Z,10.81
2022-10-05T01:16:56.211Z,10.76
2022-10-05T01:19:51.060Z,9.69
2022-10-05T01:22:27.533Z,9.43
2022-10-05T01:24:55.369Z,9.54
2022-10-05T01:27:38.304Z,9.77
2022-10-05T01:30:12.307Z,10.07
2022-10-05T01:33:01.995Z,9.56
2022-10-05T01:35:42.164Z,10.01
2022-10-05T01:38:24.210Z,9.84
2022-10-05T01:41:06.983Z,10.27
2022-10-05T01:43:39.252Z,10.29
2022-10-05T01:46:26.602Z,10.34
2022-10-05T01:49:12.771Z,10.44
2022-10-05T01:51:59.020Z,10.86
2022-10-05T01:54:29.289Z,10.46
2022-10-05T01:57:27.733Z,10.87
2022-10-05T02:00:06.190Z,10.53
2022-10-05T02:03:18.167Z,10.84
2022-10-05T02:06:06.500Z,11.15
2022-10-05T02:08:47.757Z,10.45
2022-10-05T02:11:18.349Z,10.75
2022-10-05T02:14:06.819Z,10.89
2022-10-05T02:16:40.459Z,10.97
2022-10-05T02:19:18.521Z,11.05
2022-10-05T02:21:54.569Z,11.12
2022-10-05T02:24:27.212Z,10.98
2022-10-05T02:26:56.704Z,11.01
2022-10-05T02:29:30.406Z,10.69
2022-10-05T02:32:04.469Z,11.15
2022-10-05T02:34:41.823Z,11.30
2022-10-05T02:38:01.775Z,11.29
2022-10-05T02:41:19.943Z,11.06
2022-10-05T02:44:05.800Z,11.31
2022-10-05T02:46:41.693Z,11.21
2022-10-05T02:49:36.002Z,11.06
2022-10-05T02:52:16.722Z,11.41
2022-10-05T02:55:10.413Z,11.06
2022-10-05T02:57:47.237Z,11.17
2022-10-05T03:00:23.449Z,11.19
2022-10-05T03:03:14.063Z,10.91
2022-10-05T03:05:51.491Z,10.87
2022-10-05T03:08:27.501Z,10.96
2022-10-05T03:11:10.429Z,10.90
2022-10-05T03:13:38.009Z,10.49
2022-10-05T03:16:08.669Z,10.55
2022-10-05T03:19:03.428Z,10.87
2022-10-05T03:22:11.199Z,10.69
2022-10-05T03:24:51.909Z,10.27
2022-10-05T03:27:29.037Z,10.07
2022-10-05T03:30:08.258Z,10.54
2022-10-05T03:32:54.834Z,10.42
2022-10-05T03:35:35.547Z,10.37
2022-10-05T03:38:22.074Z,10.42
2022-10-05T03:40:59.489Z,9.96
2022-10-05T03:43:53.512Z,9.94
2022-10-05T03:46:36.662Z,9.92
2022-10-05T03:49:11.014Z,9.86
2022-10-05T03:51:45.664Z,9.85
2022-10-05T03:54:24.609Z,10.22
2022-10-05T03:57:00.493Z,9.34
2022-10-05T03:59:38.087Z,9.14
2022-10-05T04:02:13.136Z,9.21
2022-10-05T04:04:49.803Z,8.97
2022-10-05T04:07:46.839Z,9.63
2022-10-05T04:10:27.078Z,8.75
2022-10-05T04:13:24.519Z,9.53
2022-10-05T04:16:14.561Z,9.53
2022-10-05T04:18:57.986Z,9.19
2022-10-05T04:21:32.468Z,9.68
2022-10-05T04:24:16.256Z,9.10
2022-10-05T04:27:15.244Z,9.12
2022-10-05T04:30:05.279Z,8.76
2022-10-05T04:32:41.991Z,8.79
2022-10-05T04:35:29.818Z,9.09
2022-10-05T04:38:23.309Z,9.50
2022-10-05T04:41:09.548Z,9.63
2022-10-05T04:44:13.024Z,9.12
2022-10-05T04:47:16.546Z,9.15
2022-10-05T04:50:07.940Z,8.73
2022-10-05T04:52:53.620Z,8.40
2022-10-05T04:55:40.205Z,9.00
2022-10-05T04:58:20.023Z,8.33
2022-10-05T05:00:51.021Z,8.85
2022-10-05T05:03:34.835Z,8.81
2022-10-05T05:06:32.729Z,8.98
2022-10-05T05:09:09.453Z,8.73
2022-10-05T05:12:03.789Z,8.88
2022-10-05T05:14:57.059Z,8.96
2022-10-05T05:17:47.667Z,8.66
2022-10-05T05:20:22.694Z,8.39
2022-10-05T05:22:50.479Z,8.82
2022-10-05T05:25:19.049Z,8.75
2022-10-05T05:28:23.453Z,8.24
2022-10-05T05:31:11.053Z,8.27
2022-10-05T05:33:55.231Z,8.61
2022-10-05T05:36:50.004Z,9.78
2022-10-05T05:39:37.232Z,9.79
2022-10-05T05:42:08.118Z,9.08
2022-10-05T05:44:44.160Z,9.91
2022-10-05T05:47:23.366Z,9.60
2022-10-05T05:50:10.329Z,9.09
2022-10-05T05:52:43.261Z,10.15
2022-10-05T05:55:30.348Z,10.37
2022-10-05T05:58:20.596Z,9.59
2022-10-05T06:00:59.323Z,10.35
2022-10-05T06:03:43.325Z,9.72
2022-10-05T06:06:15.738Z,9.55
2022-10-05T06:08:56.759Z,9.71
2022-10-05T06:11:41.250Z,10.46
2022-10-05T06:14:17.209Z,9.78
2022-10-05T06:16:51.964Z,10.13
2022-10-05T06:19:23.822Z,10.23
2022-10-05T06:22:09.252Z,10.87
2022-10-05T06:24:49.970Z,10.71
2022-10-05T06:27:34.299Z,10.48
2022-10-05T06:30:17.046Z,11.14
2022-10-05T06:32:50.869Z,11.56
2022-10-05T06:35:48.273Z,11.56
2022-10-05T06:38:41.002Z,11.89
2022-10-05T06:41:27.478Z,10.84
2022-10-05T06:43:56.145Z,11.47
2022-10-05T06:46:36.328Z,11.11
2022-10-05T06:49:18.215Z,12.16
2022-10-05T06:51:46.202Z,12.12
2022-10-05T06:54:28.146Z,12.40
2022-10-05T06:57:23.813Z,12.58
2022-10-05T07:00:03.995Z,12.38
2022-10-05T07:02:46.769Z,12.79
2022-10-05T07:05:33.240Z,12.44
2022-10-05T07:08:20.549Z,12.40
2022-10-05T07:10:58.867Z,13.48
2022-10-05T07:14:01.741Z,13.87
2022-10-05T07:16:45.747Z,13.99
2022-10-05T07:19:26.165Z,13.83
2022-10-05T07:22:33.484Z,13.85
2022-10-05T07:25:15.177Z,14.71
2022-10-05T07:28:05.527Z,14.81
2022-10-05T07:30:48.138Z,14.67
2022-10-05T07:33:38.159Z,13.86
2022-10-05T07:36:43.161Z,14.34
2022-10-05T07:39:23.656Z,14.66
2022-10-05T07:42:20.186Z,14.25
2022-10-05T07:44:58.866Z,14.75
2022-10-05T07:47:38.659Z,14.50
2022-10-05T07:50:18.799Z,14.88
2022-10-05T07:53:00.802Z,14.74
2022-10-05T07:55:40.830Z,14.80
2022-10-05T07:58:23.586Z,15.07
2022-10-05T08:01:04.734Z,15.34
2022-10-05T08:03:33.352Z,15.28
2022-10-05T08:06:03.960Z,15.27
2022-10-05T08:09:09.939Z,15.18
2022-10-05T08:11:49.104Z,15.13
2022-10-05T08:14:33.808Z,15.19
2022-10-05T08:17:16.433Z,15.11
2022-10-05T08:19:50.742Z,15.58
2022-10-05T08:22:33.653Z,15.58
2022-10-05T08:25:05.916Z,15.71
2022-10-05T08:27:45.440Z,15.98
2022-10-05T08:30:15.913Z,15.99
2022-10-05T08:32:55.293Z,16.15
2022-10-05T08:35:44.046Z,15.75
2022-10-05T08:38:16.746Z,15.51
2022-10-05T08:40:47.126Z,16.36
2022-10-05T08:43:49.330Z,16.06
2022-10-05T08:46:32.375Z,16.23
2022-10-05T08:49:19.244Z,15.81
2022-10-05T08:52:00.514Z,16.13
2022-10-05T08:54:28.338Z,16.86
2022-10-05T08:57:21.708Z,17.41
2022-10-05T09:00:05.211Z,16.40
2022-10-05T09:02:55.741Z,16.78
2022-10-05T09:05:38.812Z,17.05
2022-10-05T09:08:34.411Z,16.59
2022-10-05T09:11:05.928Z,17.36
2022-10-05T09:14:27.992Z,16.90
2022-10-05T09:17:01.906Z,18.22
2022-10-05T09:19:50.905Z,18.10
2022-10-05T09:22:56.258Z,16.93
2022-10-05T09:25:28.425Z,17.70
2022-10-05T09:28:04.142Z,18.29
2022-10-05T09:30:46.918Z,17.28
2022-10-05T09:33:39.426Z,17.89
2022-10-05T09:36:21.988Z,18.39
2022-10-05T09:39:28.269Z,18.49
2022-10-05T09:42:32.543Z,18.71
2022-10-05T09:45:28.139Z,18.47
2022-10-05T09:48:29.810Z,19.00
2022-10-05T09:51:14.030Z,19.18
2022-10-05T09:54:10.652Z,19.42
2022-10-05T09:56:53.821Z,18.56
2022-10-05T09:59:46.367Z,18.61
2022-10-05T10:02:23.072Z,19.08
2022-10-05T10:05:09.177Z,18.77
2022-10-05T10:08:20.473Z,19.56
2022-10-05T10:11:23.486Z,19.70
2022-10-05T10:14:09.395Z,19.82
2022-10-05T10:17:09.885Z,19.81
2022-10-05T10:20:15.002Z,20.30
2022-10-05T10:22:57.705Z,19.74
2022-10-05T10:26:13.015Z,20.04
2022-10-05T10:28:40.924Z,19.65
2022-10-05T10:31:20.782Z,20.15
2022-10-05T10:34:30.224Z,20.21
2022-10-05T10:37:25.430Z,18.88
2022-10-05T10:40:37.058Z,19.58
2022-10-05T10:43:07.478Z,18.81
2022-10-05T10:46:09.544Z,18.94
2022-10-05T10:48:52.065Z,19.16
2022-10-05T10:51:57.533Z,18.82
2022-10-05T10:54:39.938Z,18.67
2022-10-05T10:57:17.010Z,19.32
2022-10-05T11:00:19.270Z,19.60
2022-10-05T11:03:09.134Z,18.84
2022-10-05T11:05:48.806Z,19.62
2022-10-05T11:08:54.160Z,18.82
2022-10-05T11:11:47.644Z,19.06
2022-10-05T11:14:41.662Z,19.34
2022-10-05T11:17:31.743Z,19.24
2022-10-05T11:20:25.140Z,19.80
2022-10-05T11:23:17.884Z,19.11
2022-10-05T11:26:11.363Z,19.83
2022-10-05T11:28:50.979Z,19.32
2022-10-05T11:31:40.546Z,19.19
2022-10-05T11:34:20.363Z,19.10
2022-10-05T11:37:31.786Z,19.60
2022-10-05T11:40:37.850Z,20.06
2022-10-05T11:43:40.138Z,19.91
2022-10-05T11:46:16.680Z,19.49
2022-10-05T11:49:06.881Z,18.83
2022-10-05T11:51:43.615Z,19.51
2022-10-05T11:54:17.606Z,19.29
2022-10-05T11:57:02.120Z,19.38
2022-10-05T11:59:40.634Z,19.60
2022-10-05T12:02:31.341Z,19.32
2022-10-05T12:05:21.193Z,19.70
2022-10-05T12:08:12.729Z,19.24
2022-10-05T12:11:05.201Z,19.44
2022-10-05T12:14:05.530Z,19.06
2022-10-05T12:16:55.612Z,18.92
2022-10-05T12:19:31.695Z,19.68
2022-10-05T12:22:11.167Z,19.52
2022-10-05T12:24:39.068Z,18.65
2022-10-05T12:27:07.405Z,19.27
2022-10-05T12:29:44.331Z,19.04
2022-10-05T12:32:23.764Z,19.27
2022-10-05T12:35:43.771Z,19.03
2022-10-05T12:38:24.361Z,18.96
2022-10-05T12:41:10.763Z,18.98
2022-10-05T12:43:58.877Z,19.27
2022-10-05T12:46:38.666Z,19.35
2022-10-05T12:49:18.424Z,19.11
2022-10-05T12:51:59.219Z,19.08
2022-10-05T12:54:45.856Z,18.76
2022-10-05T12:57:19.208Z,18.59
2022-10-05T13:00:17.858Z,18.76
2022-10-05T13:02:55.453Z,18.64
2022-10-05T13:05:31.717Z,19.08
2022-10-05T13:08:24.478Z,19.16
2022-10-05T13:11:17.471Z,18.79
2022-10-05T13:14:38.452Z,18.95
2022-10-05T13:17:26.387Z,19.32
2022-10-05T13:20:03.205Z,19.27
2022-10-05T13:22:34.891Z,19.02
2022-10-05T13:25:15.060Z,19.06
2022-10-05T13:27:57.841Z,18.79
2022-10-05T13:30:25.575Z,18.86
2022-10-05T13:33:04.699Z,19.02
2022-10-05T13:36:07.527Z,18.51
2022-10-05T13:38:43.660Z,18.74
2022-10-05T13:41:50.248Z,19.08
2022-10-05T13:45:01.260Z,19.07
2022-10-05T13:47:38.874Z,18.25
2022-10-05T13:50:21.865Z,18.93
2022-10-05T13:53:04.779Z,18.37
2022-10-05T13:55:51.489Z,18.56
2022-10-05T13:58:24.028Z,18.46
2022-10-05T14:00:59.937Z,18.77
2022-10-05T14:03:32.579Z,18.75
2022-10-05T14:06:03.680Z,18.87
2022-10-05T14:08:45.925Z,18.94
2022-10-05T14:11:32.602Z,18.27
2022-10-05T14:14:04.634Z,18.40
2022-10-05T14:16:33.621Z,18.34
2022-10-05T14:19:05.003Z,17.72
2022-10-05T14:21:47.357Z,18.41
2022-10-05T14:24:43.297Z,18.59
2022-10-05T14:27:23.466Z,18.75
2022-10-05T14:30:28.142Z,18.68
2022-10-05T14:33:06.783Z,18.41
2022-10-05T14:35:37.207Z,18.87
2022-10-05T14:38:22.707Z,18.46
2022-10-05T14:41:27.514Z,18.52
2022-10-05T14:44:13.291Z,18.70
2022-10-05T14:46:55.661Z,18.59
2022-10-05T14:49:27.699Z,19.01
2022-10-05T14:51:56.713Z,18.65
2022-10-05T14:55:08.447Z,18.91
2022-10-05T14:58:02.028Z,18.98
2022-10-05T15:00:38.494Z,19.16
2022-10-05T15:10:27.153Z,18.65
2022-10-05T15:13:16.264Z,18.82
2022-10-05T15:15:56.426Z,18.71
2022-10-05T15:18:32.196Z,18.48
2022-10-05T15:21:24.878Z,18.56
2022-10-05T15:24:19.454Z,18.59
2022-10-05T15:26:56.482Z,18.61
2022-10-05T15:29:36.184Z,18.64
2022-10-05T15:32:14.542Z,18.60
2022-10-05T15:35:07.432Z,18.42
2022-10-05T15:37:44.942Z,18.27
2022-10-05T15:40:39.062Z,18.20
2022-10-05T15:43:13.925Z,18.06
2022-10-05T15:46:16.974Z,18.13
2022-10-05T15:49:16.264Z,17.99
2022-10-05T15:51:57.201Z,17.95
2022-10-05T15:54:55.892Z,17.86
2022-10-05T15:58:08.434Z,17.65
2022-10-05T16:01:05.805Z,17.77
2022-10-05T16:03:54.329Z,17.68
2022-10-05T16:06:56.551Z,17.52
2022-10-05T16:09:42.641Z,16.93
2022-10-05T16:12:12.769Z,16.85
2022-10-05T16:14:55.094Z,16.90
2022-10-05T16:17:53.440Z,16.85
2022-10-05T16:20:34.385Z,16.92
2022-10-05T16:23:25.410Z,17.05
2022-10-05T16:26:15.196Z,16.79
2022-10-05T16:29:13.091Z,16.59
2022-10-05T16:32:00.323Z,16.58
2022-10-05T16:34:56.267Z,16.54
2022-10-05T16:37:43.053Z,16.27
2022-10-05T16:40:41.680Z,16.17
2022-10-05T16:43:27.620Z,16.07
2022-10-05T16:46:13.599Z,15.96
2022-10-05T16:48:41.491Z,16.10
2022-10-05T16:51:27.310Z,15.93
2022-10-05T16:53:59.229Z,16.02
2022-10-05T16:56:37.646Z,15.93
2022-10-05T16:59:32.289Z,16.10
2022-10-05T17:02:24.467Z,15.76
2022-10-05T17:05:24.130Z,15.97
2022-10-05T17:08:26.711Z,15.38
2022-10-05T17:11:19.666Z,15.25
2022-10-05T17:13:50.086Z,15.40
2022-10-05T17:16:30.678Z,15.55
2022-10-05T17:19:20.924Z,15.19
2022-10-05T17:22:00.555Z,15.16
2022-10-05T17:25:00.724Z,15.24
2022-10-05T17:27:50.949Z,15.24
2022-10-05T17:30:22.039Z,15.16
2022-10-05T17:33:04.711Z,15.31
2022-10-05T17:36:08.534Z,14.97
2022-10-05T17:39:12.305Z,15.07
2022-10-05T17:41:40.129Z,15.02
2022-10-05T17:44:16.030Z,14.73
2022-10-05T17:46:51.437Z,14.69
2022-10-05T17:49:38.126Z,14.48
2022-10-05T17:52:40.836Z,14.74
2022-10-05T17:55:36.050Z,14.36
2022-10-05T17:58:29.070Z,14.70
2022-10-05T18:00:57.195Z,14.28
2022-10-05T18:03:41.845Z,14.38
2022-10-05T18:06:32.804Z,14.61
2022-10-05T18:09:22.785Z,14.41
2022-10-05T18:12:18.013Z,14.13
2022-10-05T18:14:58.287Z,14.19
2022-10-05T18:17:45.420Z,14.82
2022-10-05T18:20:34.736Z,14.61
2022-10-05T18:23:09.696Z,14.87
2022-10-05T18:25:38.297Z,15.15
2022-10-05T18:28:31.173Z,15.16
2022-10-05T18:31:17.201Z,15.16
2022-10-05T18:34:14.707Z,14.78
2022-10-05T18:37:00.888Z,14.33
2022-10-05T18:39:53.270Z,14.60
2022-10-05T18:42:56.349Z,14.68
2022-10-05T18:45:26.260Z,14.84
2022-10-05T18:48:06.713Z,14.17
2022-10-05T18:50:42.216Z,14.36
2022-10-05T18:53:56.184Z,14.64
2022-10-05T18:56:42.618Z,14.93
2022-10-05T18:59:19.338Z,15.08
2022-10-05T19:01:58.228Z,14.98
2022-10-05T19:04:44.956Z,14.90
2022-10-05T19:07:28.822Z,14.79
2022-10-05T19:10:26.624Z,14.95
2022-10-05T19:13:15.831Z,14.86
2022-10-05T19:15:59.123Z,14.82
2022-10-05T19:18:57.703Z,14.54
2022-10-05T19:22:10.419Z,13.94
2022-10-05T19:25:15.171Z,14.19
2022-10-05T19:28:01.597Z,13.95
2022-10-05T19:30:51.099Z,13.87
2022-10-05T19:33:56.576Z,14.29
2022-10-05T19:37:01.999Z,14.33
2022-10-05T19:39:38.651Z,13.90
2022-10-05T19:42:14.970Z,14.22
2022-10-05T19:44:58.182Z,14.32
2022-10-05T19:47:53.396Z,14.44
2022-10-05T19:50:30.862Z,14.40
2022-10-05T19:53:13.007Z,14.06
2022-10-05T19:55:47.126Z,14.44
2022-10-05T19:58:26.277Z,14.39
2022-10-05T20:01:04.993Z,13.95
2022-10-05T20:03:36.744Z,14.03
2022-10-05T20:06:07.043Z,13.53
2022-10-05T20:08:44.384Z,13.85
2022-10-05T20:11:14.708Z,13.94
2022-10-05T20:13:47.082Z,14.23
2022-10-05T20:16:36.371Z,13.96
2022-10-05T20:19:52.533Z,14.04
2022-10-05T20:22:35.101Z,14.31
2022-10-05T20:25:31.156Z,13.95
2022-10-05T20:27:59.026Z,14.09
2022-10-05T20:30:29.131Z,13.78
2022-10-05T20:32:59.700Z,13.84
2022-10-05T20:35:30.852Z,14.15
2022-10-05T20:38:01.917Z,13.66
2022-10-05T20:40:30.383Z,13.62
2022-10-05T20:42:58.867Z,13.63
2022-10-05T20:45:26.587Z,13.76
2022-10-05T20:47:55.110Z,13.99
2022-10-05T20:50:22.882Z,13.52
2022-10-05T20:52:50.473Z,13.33
2022-10-05T20:55:18.423Z,13.47
2022-10-05T20:57:47.389Z,13.50
2022-10-05T21:00:15.164Z,13.65
2022-10-05T21:02:43.010Z,13.78
2022-10-05T21:05:10.741Z,13.78
2022-10-05T21:07:38.447Z,13.64
2022-10-05T21:10:07.225Z,13.83
2022-10-05T21:12:35.069Z,13.69
2022-10-05T21:15:04.806Z,13.68
2022-10-05T21:17:35.204Z,13.79
2022-10-05T21:20:04.021Z,13.48
2022-10-05T21:22:32.378Z,13.42
2022-10-05T21:25:00.204Z,13.71
2022-10-05T21:27:28.250Z,13.60
2022-10-05T21:29:58.089Z,13.59
2022-10-05T21:32:25.708Z,13.76
2022-10-05T21:34:53.344Z,13.65
2022-10-05T21:37:21.258Z,13.49
2022-10-05T21:39:48.920Z,13.76
2022-10-05T21:42:16.538Z,13.73
2022-10-05T21:44:44.522Z,14.07
2022-10-05T21:47:12.685Z,13.76
2022-10-05T21:49:41.602Z,14.05
2022-10-05T21:52:09.561Z,14.29
2022-10-05T21:54:37.203Z,14.11
2022-10-05T21:57:05.253Z,13.61
2022-10-05T21:59:34.466Z,13.84
2022-10-05T22:02:02.459Z,13.90
2022-10-05T22:04:30.344Z,14.21
2022-10-05T22:06:58.069Z,13.71
2022-10-05T22:09:25.669Z,13.96
2022-10-05T22:11:53.549Z,13.79
2022-10-05T22:14:21.202Z,14.23
2022-10-05T22:16:49.170Z,13.76
2022-10-05T22:19:20.014Z,13.76
2022-10-05T22:21:47.659Z,13.46
2022-10-05T22:24:15.365Z,13.20
2022-10-05T22:26:46.717Z,13.48
2022-10-05T22:29:16.194Z,13.92
2022-10-05T22:31:48.462Z,14.07
2022-10-05T22:34:16.898Z,13.99
2022-10-05T22:36:50.036Z,13.53
2022-10-05T22:39:17.923Z,13.47
2022-10-05T22:41:46.021Z,13.58
2022-10-05T22:44:13.815Z,13.78
2022-10-05T22:46:41.527Z,13.54
2022-10-05T22:49:09.571Z,13.84
2022-10-05T22:51:37.227Z,13.63
2022-10-05T22:58:30.987Z,13.16
2022-10-05T23:01:08.375Z,13.45
2022-10-05T23:03:36.310Z,13.31
2022-10-05T23:06:13.559Z,13.23
2022-10-05T23:08:42.444Z,13.22
2022-10-05T23:11:18.480Z,13.02
2022-10-05T23:13:46.136Z,13.13
2022-10-05T23:16:16.755Z,12.99
2022-10-05T23:18:46.971Z,13.13
2022-10-05T23:21:15.717Z,12.97
2022-10-05T23:23:47.453Z,13.20
2022-10-05T23:26:16.479Z,13.19
2022-10-05T23:28:47.295Z,13.41
2022-10-05T23:31:17.733Z,13.64
2022-10-05T23:33:45.512Z,13.65
2022-10-05T23:36:14.678Z,13.68
2022-10-05T23:38:42.625Z,12.89
2022-10-05T23:41:11.076Z,12.98
2022-10-05T23:43:39.096Z,12.66
2022-10-05T23:46:07.691Z,13.04
2022-10-05T23:48:39.216Z,12.94
2022-10-05T23:51:08.783Z,13.25
2022-10-05T23:53:37.094Z,13.09
2022-10-05T23:56:05.137Z,12.97
2022-10-05T23:58:33.321Z,13.23
